Time;durP1;ratioP1;P1;durP2;ratioP2;P2;SDS_P1;SDS_P2;PMS_P1;PMS_P2;Temp;Humidity;BMP_temperature;BMP_pressure;BME280_temperature;BME280_humidity;BME280_pressure;Samples;Min_cycle;Max_cycle;Signal;HPM_P1;HPM_P2
2023/01/01 00:00:54;;;;;;;7.65;4.78;;;18.80;48.50;;;;;;5021945;28;20048;-52
2023/01/01 00:03:26;;;;;;;6.78;5.53;;;18.80;48.70;;;;;;5035025;28;20725;-51
2023/01/01 00:05:58;;;;;;;9.52;5.10;;;18.80;48.70;;;;;;5035275;28;20612;-54
2023/01/01 00:08:35;;;;;;;8.52;6.03;;;18.80;48.60;;;;;;5035492;28;20120;-52
2023/01/01 00:11:05;;;;;;;8.05;5.47;;;18.80;48.50;;;;;;5027811;28;20117;-51
2023/01/01 00:13:33;;;;;;;8.38;5.40;;;18.80;48.50;;;;;;5031942;28;20037;-53
2023/01/01 00:16:04;;;;;;;7.97;5.75;;;18.80;48.40;;;;;;5034583;28;20120;-50
2023/01/01 00:18:31;;;;;;;7.90;6.03;;;18.80;47.90;;;;;;5035121;28;20037;-54
2023/01/01 00:21:17;;;;;;;9.30;6.15;;;18.80;48.40;;;;;;5034000;28;20036;-51
2023/01/01 00:23:46;;;;;;;12.32;6.10;;;18.80;47.80;;;;;;5032900;28;20045;-53
2023/01/01 00:26:15;;;;;;;9.65;6.22;;;18.80;48.00;;;;;;5033551;28;20044;-53
2023/01/01 00:28:44;;;;;;;8.77;6.10;;;18.70;48.00;;;;;;5035947;28;20045;-53
2023/01/01 00:31:16;;;;;;;10.65;5.80;;;18.70;47.90;;;;;;5033002;28;20063;-54
2023/01/01 00:33:48;;;;;;;10.48;6.18;;;18.70;47.90;;;;;;5026397;28;20078;-51
2023/01/01 00:36:21;;;;;;;11.77;5.80;;;18.70;48.20;;;;;;5032075;28;20038;-51
2023/01/01 00:38:53;;;;;;;6.53;4.88;;;18.70;47.70;;;;;;5036143;28;20129;-53
2023/01/01 00:41:20;;;;;;;5.90;5.10;;;18.60;47.80;;;;;;5033948;28;20041;-51
2023/01/01 00:43:47;;;;;;;7.35;4.15;;;18.60;47.80;;;;;;5035192;28;20055;-52
2023/01/01 00:46:16;;;;;;;7.97;5.43;;;18.60;47.70;;;;;;5035095;28;20124;-52
2023/01/01 00:48:45;;;;;;;4.90;3.50;;;18.60;47.40;;;;;;5035476;28;20053;-52
2023/01/01 00:51:14;;;;;;;7.60;3.58;;;18.50;47.30;;;;;;5032944;28;20045;-53
2023/01/01 00:53:40;;;;;;;5.28;3.40;;;18.50;47.40;;;;;;5034158;28;20041;-52
2023/01/01 00:56:07;;;;;;;4.40;2.50;;;18.50;47.30;;;;;;5034916;28;20038;-51
2023/01/01 00:58:37;;;;;;;5.35;2.75;;;18.50;47.10;;;;;;5034343;28;20064;-52
2023/01/01 01:01:08;;;;;;;6.55;2.78;;;18.50;47.00;;;;;;5028003;28;20041;-54
2023/01/01 01:03:37;;;;;;;4.97;2.60;;;18.40;46.90;;;;;;5034135;28;20072;-52
2023/01/01 01:06:11;;;;;;;3.92;2.13;;;18.40;46.70;;;;;;5017340;28;20065;-51
2023/01/01 01:08:39;;;;;;;4.90;2.35;;;18.40;46.80;;;;;;5025310;28;20053;-51
2023/01/01 01:11:11;;;;;;;4.30;2.55;;;18.40;46.70;;;;;;5034373;28;20107;-50
2023/01/01 01:13:38;;;;;;;2.88;1.80;;;18.40;46.50;;;;;;5031722;28;20064;-53
2023/01/01 01:16:19;;;;;;;3.58;2.90;;;18.40;47.40;;;;;;5031001;28;20112;-51
2023/01/01 01:18:50;;;;;;;3.85;1.75;;;18.40;46.40;;;;;;5032419;28;20038;-52
2023/01/01 01:21:19;;;;;;;3.00;1.90;;;18.40;46.50;;;;;;5031160;28;20037;-51
2023/01/01 01:23:47;;;;;;;2.75;1.85;;;18.40;46.60;;;;;;5030709;28;20405;-52
2023/01/01 01:26:18;;;;;;;3.90;2.08;;;18.40;46.50;;;;;;5030283;28;20050;-51
2023/01/01 01:28:45;;;;;;;5.00;2.28;;;18.40;46.30;;;;;;5031475;28;20065;-51
2023/01/01 01:31:19;;;;;;;3.50;2.22;;;18.30;46.40;;;;;;5031275;28;20079;-51
2023/01/01 01:33:47;;;;;;;3.42;1.55;;;18.30;46.50;;;;;;5030374;28;20045;-51
2023/01/01 01:36:24;;;;;;;5.10;1.30;;;18.30;46.50;;;;;;5030671;28;20124;-51
2023/01/01 01:38:53;;;;;;;3.50;1.58;;;18.30;46.40;;;;;;5025595;28;20049;-53
2023/01/01 01:41:23;;;;;;;2.00;1.55;;;18.30;46.50;;;;;;5025660;28;20038;-51
2023/01/01 01:44:47;;;;;;;1.50;1.30;;;18.30;46.30;;;;;;5031428;28;20052;-51
2023/01/01 01:47:37;;;;;;;4.78;1.60;;;18.30;46.20;;;;;;5029062;28;20052;-51
2023/01/01 01:50:07;;;;;;;2.05;1.50;;;18.30;46.10;;;;;;5024377;28;20045;-51
2023/01/01 01:52:38;;;;;;;4.20;1.70;;;18.20;46.40;;;;;;5030568;28;20050;-54
2023/01/01 01:55:13;;;;;;;4.45;1.48;;;18.20;46.50;;;;;;5030317;28;20060;-52
2023/01/01 01:57:44;;;;;;;2.70;1.33;;;18.20;46.60;;;;;;5030880;28;20053;-51
2023/01/01 02:00:14;;;;;;;;;;;18.20;46.50;;;;;;5032522;28;20095;-52
2023/01/01 02:02:51;;;;;;;4.18;1.70;;;18.30;47.10;;;;;;5026962;28;19921;-53
2023/01/01 02:05:21;;;;;;;4.13;1.65;;;18.20;46.30;;;;;;5028587;28;20191;-54
2023/01/01 02:07:50;;;;;;;3.50;1.40;;;18.20;46.60;;;;;;5030320;28;20600;-51
2023/01/01 02:10:19;;;;;;;4.70;1.23;;;18.20;46.50;;;;;;5030309;28;20044;-52
2023/01/01 02:12:50;;;;;;;2.72;1.38;;;18.10;46.40;;;;;;5029909;28;20103;-53
2023/01/01 02:15:26;;;;;;;4.28;1.23;;;18.10;46.40;;;;;;5029772;28;20041;-51
2023/01/01 02:18:00;;;;;;;3.22;1.48;;;18.10;46.30;;;;;;5030239;28;20068;-52
2023/01/01 02:20:35;;;;;;;4.10;1.40;;;18.10;46.60;;;;;;5030982;28;20037;-51
2023/01/01 02:23:24;;;;;;;3.58;2.00;;;18.10;46.10;;;;;;5021834;28;20462;-52
2023/01/01 02:26:25;;;;;;;1.92;1.10;;;18.10;46.50;;;;;;5017611;28;20049;-51
2023/01/01 02:29:06;;;;;;;3.80;1.77;;;18.10;46.30;;;;;;5028817;28;20488;-51
2023/01/01 02:31:48;;;;;;;4.50;1.38;;;18.10;46.30;;;;;;5029935;28;20049;-52
2023/01/01 02:34:18;;;;;;;2.20;1.40;;;18.10;46.60;;;;;;5027770;28;20116;-52
2023/01/01 02:36:50;;;;;;;4.90;1.10;;;18.10;46.70;;;;;;5029613;28;20072;-53
2023/01/01 02:39:23;;;;;;;4.18;1.15;;;18.10;46.60;;;;;;5029864;28;20025;-50
2023/01/01 02:41:53;;;;;;;3.20;1.30;;;18.10;46.70;;;;;;5010544;28;20049;-55
2023/01/01 02:44:21;;;;;;;4.03;1.55;;;18.10;46.70;;;;;;5028940;28;20037;-51
2023/01/01 02:46:50;;;;;;;3.65;1.33;;;18.10;46.80;;;;;;5029628;28;20049;-52
2023/01/01 02:49:26;;;;;;;3.08;1.17;;;18.10;46.90;;;;;;5030819;28;20571;-50
2023/01/01 02:52:17;;;;;;;2.92;1.40;;;18.10;46.90;;;;;;5026422;28;20444;-50
2023/01/01 02:54:58;;;;;;;3.10;1.40;;;18.00;47.00;;;;;;5028010;28;20642;-54
2023/01/01 02:57:46;;;;;;;3.28;1.20;;;18.10;46.90;;;;;;5030042;28;20452;-50
2023/01/01 03:00:26;;;;;;;8.02;1.90;;;18.10;46.90;;;;;;5024692;28;20033;-51
2023/01/01 03:03:15;;;;;;;4.13;1.27;;;18.10;47.20;;;;;;5025125;28;20559;-51
2023/01/01 03:06:43;;;;;;;1.23;1.10;;;18.10;47.10;;;;;;5022129;28;20064;-50
2023/01/01 03:09:14;;;;;;;5.80;1.55;;;18.10;47.20;;;;;;5027831;28;20136;-51
2023/01/01 03:11:47;;;;;;;2.65;1.00;;;18.10;47.30;;;;;;5025389;28;20103;-52
2023/01/01 03:14:40;;;;;;;5.18;1.10;;;18.00;47.50;;;;;;5030235;28;20045;-51
2023/01/01 03:17:27;;;;;;;2.15;1.00;;;18.10;47.40;;;;;;5022027;28;20507;-53
2023/01/01 03:19:56;;;;;;;2.63;0.90;;;18.00;47.40;;;;;;5026304;28;20038;-51
2023/01/01 03:22:38;;;;;;;4.18;1.35;;;18.00;47.60;;;;;;5025850;28;20397;-53
2023/01/01 03:25:08;;;;;;;6.07;1.50;;;18.00;47.70;;;;;;5026941;28;20072;-52
2023/01/01 03:27:49;;;;;;;2.88;1.00;;;18.00;47.70;;;;;;5029583;28;20073;-50
2023/01/01 03:30:18;;;;;;;3.28;1.10;;;18.00;47.80;;;;;;5023550;28;20051;-51
2023/01/01 03:33:04;;;;;;;2.50;1.10;;;18.00;47.70;;;;;;5029163;28;20046;-52
2023/01/01 03:35:36;;;;;;;4.55;1.48;;;18.00;47.70;;;;;;5027046;28;20037;-52
2023/01/01 03:38:09;;;;;;;2.13;1.25;;;18.00;48.00;;;;;;5028352;28;20061;-53
2023/01/01 03:40:39;;;;;;;3.03;1.30;;;18.00;48.20;;;;;;5028402;28;20041;-52
2023/01/01 03:43:33;;;;;;;3.22;1.40;;;18.00;48.10;;;;;;5022149;28;20067;-51
2023/01/01 03:46:00;;;;;;;2.08;0.77;;;18.00;48.10;;;;;;5029875;28;20048;-50
2023/01/01 03:48:54;;;;;;;4.90;1.23;;;18.00;48.00;;;;;;5029104;28;20053;-50
2023/01/01 03:51:58;;;;;;;2.20;1.10;;;18.00;48.40;;;;;;5025232;28;20069;-51
2023/01/01 03:54:44;;;;;;;2.38;0.90;;;18.00;48.80;;;;;;5019187;28;20728;-51
2023/01/01 03:57:34;;;;;;;3.83;1.40;;;18.10;48.70;;;;;;5020401;28;20033;-52
2023/01/01 04:00:18;;;;;;;2.70;0.85;;;18.00;48.60;;;;;;5029917;28;20075;-51
2023/01/01 04:02:55;;;;;;;1.52;1.17;;;18.00;48.70;;;;;;5028934;28;20125;-50
2023/01/01 04:05:25;;;;;;;2.33;1.08;;;18.00;48.80;;;;;;5029098;28;20472;-54
2023/01/01 04:07:54;;;;;;;2.83;1.25;;;18.00;48.90;;;;;;5020954;28;20050;-50
2023/01/01 04:10:24;;;;;;;3.47;1.35;;;18.00;49.00;;;;;;5029979;28;20051;-51
2023/01/01 04:12:55;;;;;;;4.93;2.15;;;18.00;48.90;;;;;;5028551;28;20071;-51
2023/01/01 04:15:25;;;;;;;1.60;1.50;;;17.90;48.90;;;;;;5026332;28;20048;-53
2023/01/01 04:17:52;;;;;;;2.97;1.23;;;17.90;49.30;;;;;;5024263;28;20288;-54
2023/01/01 04:20:24;;;;;;;3.40;1.08;;;17.90;49.30;;;;;;5028861;28;20084;-52
2023/01/01 04:22:55;;;;;;;2.55;1.15;;;17.90;49.30;;;;;;5028456;28;20080;-50
2023/01/01 04:25:24;;;;;;;4.60;1.55;;;17.90;49.30;;;;;;5026836;28;20052;-50
2023/01/01 04:27:52;;;;;;;4.85;1.45;;;17.90;49.30;;;;;;5029010;28;20060;-51
2023/01/01 04:30:21;;;;;;;4.30;1.45;;;17.90;49.40;;;;;;5028874;28;20076;-50
2023/01/01 04:32:48;;;;;;;3.03;1.60;;;17.90;49.50;;;;;;5027096;28;20089;-52
2023/01/01 04:35:16;;;;;;;3.45;1.15;;;17.90;49.40;;;;;;5027813;28;20062;-54
2023/01/01 04:37:44;;;;;;;4.47;1.50;;;17.90;49.40;;;;;;5028973;28;20132;-52
2023/01/01 04:40:12;;;;;;;3.67;1.45;;;17.90;49.50;;;;;;5021533;28;20041;-54
2023/01/01 04:42:39;;;;;;;2.40;1.08;;;17.90;49.60;;;;;;5028158;28;20132;-51
2023/01/01 04:45:07;;;;;;;3.55;1.50;;;18.10;49.70;;;;;;5027978;28;20045;-52
2023/01/01 04:47:33;;;;;;;2.30;1.10;;;17.90;49.50;;;;;;5029354;28;20041;-50
2023/01/01 04:50:00;;;;;;;3.42;1.70;;;17.90;49.60;;;;;;5032610;28;20464;-53
2023/01/01 04:52:27;;;;;;;5.18;1.40;;;17.90;49.60;;;;;;5032210;28;20091;-52
2023/01/01 04:54:53;;;;;;;5.47;1.92;;;17.90;49.50;;;;;;5030042;28;20088;-51
2023/01/01 04:57:20;;;;;;;3.67;1.20;;;17.90;49.60;;;;;;5031730;28;20048;-51
2023/01/01 04:59:47;;;;;;;2.63;1.23;;;17.90;49.60;;;;;;5033016;28;20120;-51
2023/01/01 05:02:14;;;;;;;2.70;1.15;;;17.90;49.70;;;;;;5031337;28;20057;-50
2023/01/01 05:04:43;;;;;;;4.07;1.02;;;17.90;49.60;;;;;;5032714;28;20063;-50
2023/01/01 05:07:14;;;;;;;4.75;1.20;;;17.90;49.60;;;;;;5024567;28;20087;-54
2023/01/01 05:09:45;;;;;;;0.70;0.70;;;17.90;49.80;;;;;;5025281;28;20049;-53
2023/01/01 05:12:12;;;;;;;1.52;1.17;;;17.90;49.70;;;;;;5025861;28;20041;-54
2023/01/01 05:14:43;;;;;;;2.53;1.60;;;17.90;49.70;;;;;;5032247;28;20045;-51
2023/01/01 05:17:13;;;;;;;2.92;1.08;;;17.90;50.10;;;;;;5022484;28;20044;-53
2023/01/01 05:19:41;;;;;;;2.22;1.20;;;17.80;49.70;;;;;;5032154;28;20052;-54
2023/01/01 05:22:10;;;;;;;3.33;1.45;;;17.90;49.80;;;;;;5030899;28;20132;-53
2023/01/01 05:24:37;;;;;;;2.10;1.20;;;17.80;49.80;;;;;;5027401;28;20576;-54
2023/01/01 05:27:04;;;;;;;3.03;1.00;;;17.80;49.90;;;;;;5031637;28;20053;-51
2023/01/01 05:29:31;;;;;;;3.83;1.17;;;17.80;50.00;;;;;;5015242;28;20120;-54
2023/01/01 05:32:00;;;;;;;2.35;1.38;;;17.80;50.00;;;;;;5030155;28;20128;-53
2023/01/01 05:34:29;;;;;;;2.97;1.20;;;17.80;50.00;;;;;;5031531;28;20409;-52
2023/01/01 05:37:00;;;;;;;1.10;0.90;;;17.80;50.10;;;;;;5031111;28;20534;-53
2023/01/01 05:39:36;;;;;;;1.67;1.02;;;17.80;50.30;;;;;;5031827;28;20036;-55
2023/01/01 05:42:09;;;;;;;2.10;0.95;;;17.80;50.20;;;;;;5022617;28;20037;-55
2023/01/01 05:44:36;;;;;;;4.18;1.27;;;17.80;50.30;;;;;;5032210;28;20037;-54
2023/01/01 05:47:05;;;;;;;3.03;1.30;;;17.80;50.20;;;;;;5030026;28;20099;-52
2023/01/01 05:49:35;;;;;;;3.42;1.27;;;17.80;50.20;;;;;;5031248;28;20628;-54
2023/01/01 05:52:04;;;;;;;3.05;1.27;;;17.80;50.30;;;;;;5027512;28;20136;-54
2023/01/01 05:54:31;;;;;;;4.72;1.60;;;17.80;50.30;;;;;;5013550;28;20561;-55
2023/01/01 05:57:01;;;;;;;3.80;1.23;;;17.80;50.40;;;;;;5031102;28;20375;-53
2023/01/01 05:59:28;;;;;;;3.67;0.88;;;17.80;50.40;;;;;;5030488;28;20513;-54
2023/01/01 06:02:01;;;;;;;5.13;1.50;;;17.80;50.60;;;;;;5030927;28;20506;-54
2023/01/01 06:04:42;;;;;;;3.70;1.00;;;17.80;50.60;;;;;;5031833;28;20128;-54
2023/01/01 06:07:11;;;;;;;3.75;1.40;;;17.80;50.60;;;;;;5029255;28;20428;-54
2023/01/01 06:09:53;;;;;;;4.20;1.20;;;17.80;50.60;;;;;;5029869;28;20191;-54
2023/01/01 06:12:24;;;;;;;2.65;1.42;;;17.80;50.70;;;;;;5024486;28;20096;-53
2023/01/01 06:14:53;;;;;;;3.53;1.30;;;17.80;50.80;;;;;;5031483;28;20048;-52
2023/01/01 06:17:22;;;;;;;4.65;1.30;;;17.70;51.40;;;;;;5030991;28;20060;-54
2023/01/01 06:19:49;;;;;;;3.65;1.55;;;17.70;50.80;;;;;;5030700;28;20056;-53
2023/01/01 06:22:18;;;;;;;3.03;1.38;;;17.70;51.50;;;;;;5030947;28;20044;-55
2023/01/01 06:24:49;;;;;;;4.70;1.48;;;17.70;51.10;;;;;;5030011;28;20048;-53
2023/01/01 06:27:19;;;;;;;2.72;1.38;;;17.70;51.00;;;;;;5022591;28;20061;-53
2023/01/01 06:29:52;;;;;;;2.70;1.27;;;17.70;51.10;;;;;;5031670;28;20041;-54
2023/01/01 06:32:21;;;;;;;3.63;1.30;;;17.70;51.20;;;;;;5030390;28;20409;-54
2023/01/01 06:34:50;;;;;;;2.20;1.23;;;17.70;51.20;;;;;;5030430;28;20041;-53
2023/01/01 06:37:19;;;;;;;3.53;1.38;;;17.70;51.30;;;;;;5028660;28;20041;-50
2023/01/01 06:39:46;;;;;;;4.88;1.63;;;17.70;51.40;;;;;;5031495;28;20054;-51
2023/01/01 06:42:13;;;;;;;2.38;1.30;;;17.70;51.50;;;;;;5029913;28;20120;-52
2023/01/01 06:44:39;;;;;;;3.95;1.30;;;17.60;51.50;;;;;;5030181;28;20105;-52
2023/01/01 06:47:06;;;;;;;1.52;1.02;;;17.70;51.70;;;;;;5027040;28;20045;-54
2023/01/01 06:49:40;;;;;;;2.70;1.30;;;17.70;51.70;;;;;;5031373;28;20080;-51
2023/01/01 06:52:10;;;;;;;4.07;1.65;;;17.70;51.80;;;;;;5029005;28;20087;-53
2023/01/01 06:54:37;;;;;;;1.83;1.40;;;17.70;51.80;;;;;;5029666;28;20662;-51
2023/01/01 06:57:04;;;;;;;4.07;1.48;;;17.60;51.80;;;;;;5026014;28;20041;-53
2023/01/01 06:59:33;;;;;;;5.38;1.67;;;17.60;51.80;;;;;;5029749;28;20060;-52
2023/01/01 07:02:00;;;;;;;8.32;2.05;;;17.60;52.00;;;;;;5009105;28;20045;-52
2023/01/01 07:04:27;;;;;;;5.63;1.75;;;17.60;52.10;;;;;;5027680;28;20063;-52
2023/01/01 07:06:55;;;;;;;2.97;1.38;;;17.60;52.30;;;;;;5024367;28;20682;-52
2023/01/01 07:09:23;;;;;;;3.40;1.25;;;17.60;52.30;;;;;;5031111;28;20062;-54
2023/01/01 07:11:49;;;;;;;2.60;1.50;;;17.60;52.70;;;;;;5028818;28;20499;-53
2023/01/01 07:14:19;;;;;;;3.03;1.77;;;17.60;52.90;;;;;;5019798;28;20064;-53
2023/01/01 07:16:45;;;;;;;2.92;1.25;;;17.50;53.10;;;;;;5029444;28;20147;-51
2023/01/01 07:19:12;;;;;;;4.68;1.58;;;17.50;53.50;;;;;;5031152;28;20091;-52
2023/01/01 07:21:44;;;;;;;3.22;1.40;;;17.50;53.60;;;;;;5011632;28;20053;-52
2023/01/01 07:24:19;;;;;;;4.07;1.73;;;17.50;54.00;;;;;;5027566;28;20048;-51
2023/01/01 07:26:56;;;;;;;6.47;2.42;;;17.50;54.40;;;;;;5018560;28;20382;-54
2023/01/01 07:29:24;;;;;;;4.70;1.90;;;17.40;54.20;;;;;;5013270;28;20152;-55
2023/01/01 07:31:59;;;;;;;5.25;1.48;;;17.40;54.50;;;;;;5027597;28;20042;-55
2023/01/01 07:34:27;;;;;;;4.20;1.60;;;17.30;54.60;;;;;;5028817;28;20452;-55
2023/01/01 07:36:55;;;;;;;4.30;1.75;;;17.30;54.80;;;;;;5029008;28;20045;-54
2023/01/01 07:39:22;;;;;;;5.93;1.70;;;17.20;54.80;;;;;;5031259;28;20069;-53
2023/01/01 07:41:48;;;;;;;3.15;1.40;;;17.20;55.00;;;;;;5027924;28;20068;-55
2023/01/01 07:44:24;;;;;;;3.22;1.25;;;17.20;55.20;;;;;;5029253;28;20041;-54
2023/01/01 07:47:05;;;;;;;3.45;1.80;;;17.20;55.30;;;;;;5028830;28;20045;-54
2023/01/01 07:49:32;;;;;;;4.63;1.30;;;17.10;55.60;;;;;;5022192;28;20084;-53
2023/01/01 07:52:08;;;;;;;4.10;1.65;;;17.10;55.30;;;;;;5026626;28;20124;-54
2023/01/01 07:54:35;;;;;;;5.70;1.92;;;17.10;55.40;;;;;;5028397;28;20053;-53
2023/01/01 07:57:04;;;;;;;4.80;2.03;;;17.10;55.60;;;;;;5027843;28;20041;-54
2023/01/01 07:59:44;;;;;;;4.68;1.88;;;17.10;55.70;;;;;;5021135;28;20065;-54
2023/01/01 08:02:19;;;;;;;4.93;1.73;;;17.10;55.70;;;;;;5027066;28;20095;-54
2023/01/01 08:04:46;;;;;;;3.15;1.58;;;17.10;55.70;;;;;;5028296;28;20052;-51
2023/01/01 08:07:15;;;;;;;2.55;1.55;;;17.00;55.80;;;;;;5028337;28;20045;-53
2023/01/01 08:09:42;;;;;;;3.58;2.33;;;17.00;55.90;;;;;;5025797;28;20053;-54
2023/01/01 08:12:10;;;;;;;4.80;1.77;;;17.00;55.90;;;;;;5010529;28;20517;-52
2023/01/01 08:14:39;;;;;;;3.78;1.60;;;17.00;55.90;;;;;;5010766;28;20100;-51
2023/01/01 08:17:06;;;;;;;3.45;1.40;;;17.00;56.00;;;;;;5025279;28;20518;-54
2023/01/01 08:19:37;;;;;;;6.32;2.42;;;17.00;56.00;;;;;;5003478;28;20045;-52
2023/01/01 08:22:07;;;;;;;4.72;2.00;;;17.00;56.20;;;;;;5026179;28;20069;-50
2023/01/01 08:24:33;;;;;;;6.63;1.80;;;17.00;56.10;;;;;;5014669;28;20491;-51
2023/01/01 08:27:00;;;;;;;2.92;1.50;;;17.00;56.80;;;;;;5027800;28;20076;-52
2023/01/01 08:29:27;;;;;;;4.53;1.60;;;17.00;56.30;;;;;;5023516;28;20088;-50
2023/01/01 08:31:54;;;;;;;3.75;2.20;;;17.00;56.30;;;;;;5028968;28;20433;-54
2023/01/01 08:34:22;;;;;;;5.32;1.83;;;16.90;56.40;;;;;;5024587;28;20037;-52
2023/01/01 08:36:49;;;;;;;7.97;2.63;;;17.00;56.40;;;;;;5031874;28;20096;-52
2023/01/01 08:39:16;;;;;;;3.65;1.50;;;17.00;56.40;;;;;;5026781;28;20044;-55
2023/01/01 08:41:43;;;;;;;5.05;2.00;;;17.00;56.60;;;;;;5023152;28;20060;-54
2023/01/01 08:44:09;;;;;;;4.65;1.65;;;16.90;56.40;;;;;;5032719;28;20037;-51
2023/01/01 08:46:36;;;;;;;8.07;2.25;;;16.90;56.60;;;;;;5032549;28;20129;-51
2023/01/01 08:49:03;;;;;;;2.78;1.63;;;17.00;56.60;;;;;;5027279;28;20606;-54
2023/01/01 08:51:29;;;;;;;3.47;2.08;;;17.00;56.60;;;;;;5031488;28;20080;-50
2023/01/01 08:53:56;;;;;;;4.88;2.10;;;17.00;56.60;;;;;;5011738;28;20041;-53
2023/01/01 08:56:23;;;;;;;3.70;1.52;;;17.00;56.70;;;;;;5033141;28;20040;-54
2023/01/01 08:58:49;;;;;;;6.63;1.75;;;17.00;56.70;;;;;;5030333;28;20037;-54
2023/01/01 09:01:20;;;;;;;2.92;2.25;;;17.00;56.70;;;;;;5011678;28;20453;-54
2023/01/01 09:03:48;;;;;;;3.70;2.00;;;17.00;56.70;;;;;;5029945;28;20051;-54
2023/01/01 09:06:14;;;;;;;3.08;1.48;;;17.00;56.70;;;;;;5031351;28;20386;-52
2023/01/01 09:08:41;;;;;;;3.65;1.45;;;17.00;56.70;;;;;;5032219;28;20048;-54
2023/01/01 09:11:24;;;;;;;5.53;2.22;;;17.00;56.70;;;;;;5031388;28;20055;-52
2023/01/01 09:13:51;;;;;;;4.03;2.17;;;17.00;56.80;;;;;;5014469;28;20055;-51
2023/01/01 09:16:19;;;;;;;3.78;1.83;;;17.00;56.70;;;;;;5028946;28;20038;-55
2023/01/01 09:18:45;;;;;;;5.10;1.80;;;17.00;56.80;;;;;;5031087;28;20033;-54
2023/01/01 09:21:12;;;;;;;2.15;1.30;;;17.10;56.90;;;;;;5031788;28;20193;-55
2023/01/01 09:23:42;;;;;;;6.22;1.60;;;17.10;56.90;;;;;;5030892;28;20045;-55
2023/01/01 09:26:09;;;;;;;3.70;1.65;;;17.10;56.90;;;;;;5027303;28;20116;-52
2023/01/01 09:28:36;;;;;;;5.90;1.60;;;17.10;56.90;;;;;;5032352;28;20043;-54
2023/01/01 09:31:05;;;;;;;3.08;1.75;;;17.10;56.90;;;;;;5031989;28;20103;-55
2023/01/01 09:33:33;;;;;;;4.13;1.85;;;17.10;57.00;;;;;;5029913;28;20116;-54
2023/01/01 09:36:20;;;;;;;3.70;1.67;;;17.10;57.00;;;;;;5019734;28;20048;-54
2023/01/01 09:38:50;;;;;;;6.07;2.58;;;17.10;57.10;;;;;;5024602;28;20037;-54
2023/01/01 09:41:42;;;;;;;3.92;2.58;;;17.10;57.00;;;;;;5025916;28;20091;-55
2023/01/01 09:44:25;;;;;;;5.60;2.03;;;17.20;57.20;;;;;;5031790;28;20046;-52
2023/01/01 09:46:53;;;;;;;3.22;2.00;;;17.20;57.10;;;;;;5028094;28;20049;-52
2023/01/01 09:49:31;;;;;;;4.95;1.90;;;17.20;57.00;;;;;;5032126;28;20413;-53
2023/01/01 09:52:00;;;;;;;3.65;1.70;;;17.20;57.20;;;;;;5019616;28;20076;-54
2023/01/01 09:54:50;;;;;;;3.53;1.52;;;17.20;57.10;;;;;;5007524;28;20055;-54
2023/01/01 09:57:24;;;;;;;2.50;1.70;;;17.20;57.10;;;;;;5029325;28;20076;-52
2023/01/01 09:59:53;;;;;;;4.35;2.13;;;17.20;57.00;;;;;;5027903;28;20124;-54
2023/01/01 10:02:35;;;;;;;3.95;1.58;;;17.20;57.10;;;;;;5025784;28;20052;-53
2023/01/01 10:05:12;;;;;;;5.30;1.92;;;17.20;57.10;;;;;;5025513;28;20046;-50
2023/01/01 10:07:51;;;;;;;5.88;3.47;;;17.20;57.20;;;;;;5022447;28;20045;-51
2023/01/01 10:10:38;;;;;;;4.97;1.75;;;17.20;57.40;;;;;;5027459;28;20037;-50
2023/01/01 10:13:20;;;;;;;2.60;1.98;;;17.30;57.30;;;;;;5019295;28;20096;-54
2023/01/01 10:16:00;;;;;;;3.53;1.55;;;17.30;57.20;;;;;;5027953;28;20041;-53
2023/01/01 10:18:35;;;;;;;6.60;1.70;;;17.30;57.20;;;;;;5022100;28;20034;-55
2023/01/01 10:21:11;;;;;;;3.33;2.10;;;17.30;57.10;;;;;;5029727;28;20048;-54
2023/01/01 10:23:46;;;;;;;2.80;1.58;;;17.40;57.00;;;;;;5018739;28;20045;-52
2023/01/01 10:26:17;;;;;;;5.63;1.92;;;17.40;56.90;;;;;;5031987;28;20067;-53
2023/01/01 10:29:00;;;;;;;5.00;1.90;;;17.40;56.90;;;;;;5024068;28;20033;-52
2023/01/01 10:31:35;;;;;;;2.60;1.65;;;17.40;56.80;;;;;;5024531;28;20122;-52
2023/01/01 10:34:16;;;;;;;3.58;2.13;;;17.50;56.80;;;;;;5022376;28;20042;-52
2023/01/01 10:36:43;;;;;;;4.28;2.45;;;17.40;56.80;;;;;;5026425;28;20654;-53
2023/01/01 10:39:16;;;;;;;3.42;1.88;;;17.50;56.80;;;;;;5025316;28;20463;-52
2023/01/01 10:41:44;;;;;;;4.72;1.63;;;17.50;56.70;;;;;;5017698;28;20125;-50
2023/01/01 10:44:12;;;;;;;6.18;2.05;;;17.50;56.70;;;;;;5023789;28;20437;-51
2023/01/01 10:46:46;;;;;;;5.45;2.28;;;17.50;56.70;;;;;;5028280;28;20052;-51
2023/01/01 10:49:15;;;;;;;5.30;1.58;;;17.60;56.70;;;;;;5029224;28;20046;-54
2023/01/01 10:51:47;;;;;;;7.07;2.05;;;17.60;56.60;;;;;;5029348;28;20041;-53
2023/01/01 10:54:38;;;;;;;6.00;1.45;;;17.60;56.70;;;;;;5030262;28;20087;-54
2023/01/01 10:57:15;;;;;;;4.00;2.22;;;17.60;56.50;;;;;;5029168;28;20038;-51
2023/01/01 10:59:44;;;;;;;3.75;2.10;;;17.60;56.60;;;;;;5024900;28;20562;-55
2023/01/01 11:02:26;;;;;;;4.75;1.67;;;17.60;56.60;;;;;;5027931;28;20041;-55
2023/01/01 11:05:16;;;;;;;5.63;1.83;;;17.60;56.70;;;;;;5027359;28;20037;-54
2023/01/01 11:07:48;;;;;;;3.78;1.92;;;17.60;56.50;;;;;;5005731;28;20042;-55
2023/01/01 11:10:24;;;;;;;5.28;1.95;;;17.60;56.40;;;;;;5027452;28;20049;-54
2023/01/01 11:12:53;;;;;;;4.22;2.65;;;17.60;56.40;;;;;;5028888;28;20037;-55
2023/01/01 11:15:40;;;;;;;7.68;2.28;;;17.60;57.10;;;;;;5029116;28;20048;-54
2023/01/01 11:18:22;;;;;;;5.10;2.22;;;17.60;56.40;;;;;;5021769;28;20053;-54
2023/01/01 11:20:57;;;;;;;5.70;1.85;;;17.70;56.50;;;;;;5027840;28;20520;-55
2023/01/01 11:23:32;;;;;;;6.43;3.00;;;17.70;56.40;;;;;;5011608;28;20141;-55
2023/01/01 11:26:20;;;;;;;2.78;1.83;;;17.70;56.40;;;;;;5016292;28;20152;-54
2023/01/01 11:29:23;;;;;;;3.65;1.70;;;17.70;56.40;;;;;;5025246;28;20045;-50
2023/01/01 11:31:51;;;;;;;6.03;1.98;;;17.80;56.40;;;;;;4947775;29;20170;-55
2023/01/01 11:34:42;;;;;;;3.80;2.13;;;17.80;56.20;;;;;;5004607;28;20444;-55
2023/01/01 11:37:34;;;;;;;5.28;2.45;;;17.80;56.20;;;;;;5027478;28;20037;-54
2023/01/01 11:40:03;;;;;;;3.88;2.22;;;17.90;56.20;;;;;;5020106;28;20048;-52
2023/01/01 11:42:34;;;;;;;8.60;2.00;;;17.80;56.20;;;;;;5028833;28;20065;-54
2023/01/01 11:45:14;;;;;;;3.15;1.73;;;17.90;56.20;;;;;;5030094;28;20063;-53
2023/01/01 11:47:43;;;;;;;2.92;1.40;;;17.90;56.10;;;;;;5020547;28;20472;-51
2023/01/01 11:50:28;;;;;;;5.18;1.88;;;17.90;56.10;;;;;;5029329;28;20049;-55
2023/01/01 11:52:58;;;;;;;3.40;1.70;;;17.90;56.10;;;;;;5028759;28;20489;-54
2023/01/01 11:55:41;;;;;;;4.13;1.70;;;18.00;56.00;;;;;;5030881;28;20052;-50
2023/01/01 11:58:23;;;;;;;4.43;1.63;;;18.00;55.70;;;;;;5029382;28;20097;-52
2023/01/01 12:00:53;;;;;;;;;;;18.00;55.70;;;;;;5028705;28;20052;-53
2023/01/01 12:03:35;;;;;;;9.18;2.22;;;18.00;55.90;;;;;;5027934;28;19952;-55
2023/01/01 12:06:09;;;;;;;2.15;1.83;;;18.00;55.60;;;;;;5025478;28;20057;-53
2023/01/01 12:08:45;;;;;;;3.17;1.77;;;18.00;55.80;;;;;;5029223;28;20045;-51
2023/01/01 12:11:30;;;;;;;2.97;1.58;;;18.00;55.60;;;;;;5029401;28;20556;-55
2023/01/01 12:14:11;;;;;;;6.85;3.40;;;18.00;55.70;;;;;;5029155;28;20426;-53
2023/01/01 12:16:48;;;;;;;4.07;1.33;;;18.00;55.80;;;;;;5028713;28;20092;-55
2023/01/01 12:19:29;;;;;;;3.55;1.45;;;18.00;55.80;;;;;;5027344;28;20036;-52
2023/01/01 12:21:59;;;;;;;4.53;2.10;;;18.00;55.60;;;;;;5029149;28;20685;-51
2023/01/01 12:24:35;;;;;;;5.18;2.15;;;18.00;55.60;;;;;;5009940;28;20121;-53
2023/01/01 12:27:07;;;;;;;4.63;1.90;;;18.00;55.40;;;;;;5029555;28;20048;-55
2023/01/01 12:29:41;;;;;;;3.95;1.80;;;18.00;55.40;;;;;;5021988;28;20460;-53
2023/01/01 12:32:27;;;;;;;10.57;2.10;;;18.00;55.50;;;;;;5028327;28;20461;-52
2023/01/01 12:35:19;;;;;;;5.80;2.03;;;17.90;55.40;;;;;;5024041;28;20705;-53
2023/01/01 12:38:17;;;;;;;5.78;1.67;;;17.90;55.50;;;;;;5029358;28;20132;-55
2023/01/01 12:40:47;;;;;;;2.70;1.67;;;17.90;55.50;;;;;;5028784;28;20065;-53
2023/01/01 12:43:20;;;;;;;3.75;1.77;;;17.90;55.70;;;;;;5027756;28;20042;-52
2023/01/01 12:46:06;;;;;;;7.97;1.73;;;17.90;55.60;;;;;;5030178;28;20397;-52
2023/01/01 12:49:00;;;;;;;6.07;1.83;;;17.90;55.60;;;;;;5029798;28;20088;-52
2023/01/01 12:51:43;;;;;;;7.85;1.80;;;17.80;55.60;;;;;;5028767;28;20037;-53
2023/01/01 12:54:28;;;;;;;6.65;2.10;;;17.80;55.60;;;;;;5026154;28;20036;-55
2023/01/01 12:57:17;;;;;;;5.60;1.65;;;17.80;55.50;;;;;;5022682;28;20413;-53
2023/01/01 12:59:48;;;;;;;5.20;1.65;;;17.80;55.70;;;;;;5018530;28;20069;-54
2023/01/01 13:02:22;;;;;;;5.47;1.70;;;17.80;55.60;;;;;;5026882;28;20042;-54
2023/01/01 13:05:11;;;;;;;5.55;1.85;;;17.80;55.50;;;;;;5028467;28;20069;-54
2023/01/01 13:07:47;;;;;;;8.02;1.90;;;17.80;55.60;;;;;;5021076;28;20072;-55
2023/01/01 13:10:30;;;;;;;5.72;2.67;;;17.80;55.50;;;;;;5019294;28;20115;-53
2023/01/01 13:12:56;;;;;;;5.65;1.98;;;17.90;55.60;;;;;;5026391;28;20048;-52
2023/01/01 13:15:42;;;;;;;3.67;1.92;;;17.80;55.50;;;;;;5033236;28;20133;-55
2023/01/01 13:18:12;;;;;;;2.92;1.63;;;17.80;55.40;;;;;;5031243;28;20037;-50
2023/01/01 13:20:40;;;;;;;3.95;1.80;;;17.80;55.40;;;;;;5027325;28;20390;-55